sensor_id;sensor_type;location;lat;lon;timestamp;P1;durP1;ratioP1;P2;durP2;ratioP2
20865;SDS011;10593;48.398;10.698;2024-02-15T00:02:14;1.60;;;1.50;;
20865;SDS011;10593;48.398;10.698;2024-02-15T00:04:40;1.60;;;1.50;;
20865;SDS011;10593;48.398;10.698;2024-02-15T00:07:07;1.80;;;1.60;;
20865;SDS011;10593;48.398;10.698;2024-02-15T00:09:33;1.30;;;1.20;;
20865;SDS011;10593;48.398;10.698;2024-02-15T00:11:59;1.37;;;1.33;;
20865;SDS011;10593;48.398;10.698;2024-02-15T00:14:25;1.20;;;1.20;;
20865;SDS011;10593;48.398;10.698;2024-02-15T00:16:52;1.00;;;1.00;;
20865;SDS011;10593;48.398;10.698;2024-02-15T00:19:18;1.10;;;1.10;;
20865;SDS011;10593;48.398;10.698;2024-02-15T00:21:44;1.50;;;1.40;;
20865;SDS011;10593;48.398;10.698;2024-02-15T00:24:10;1.50;;;1.40;;
20865;SDS011;10593;48.398;10.698;2024-02-15T00:26:36;2.30;;;1.60;;
20865;SDS011;10593;48.398;10.698;2024-02-15T00:29:02;1.73;;;1.63;;
20865;SDS011;10593;48.398;10.698;2024-02-15T00:31:27;1.60;;;1.50;;
20865;SDS011;10593;48.398;10.698;2024-02-15T00:33:53;2.20;;;1.27;;
20865;SDS011;10593;48.398;10.698;2024-02-15T00:36:19;1.60;;;1.50;;
20865;SDS011;10593;48.398;10.698;2024-02-15T00:38:45;0.93;;;0.93;;
20865;SDS011;10593;48.398;10.698;2024-02-15T00:41:11;1.13;;;1.10;;
20865;SDS011;10593;48.398;10.698;2024-02-15T00:43:37;1.20;;;1.10;;
20865;SDS011;10593;48.398;10.698;2024-02-15T00:46:03;1.60;;;1.50;;
20865;SDS011;10593;48.398;10.698;2024-02-15T00:48:28;1.10;;;1.10;;
20865;SDS011;10593;48.398;10.698;2024-02-15T00:50:55;1.37;;;1.20;;
20865;SDS011;10593;48.398;10.698;2024-02-15T00:53:21;1.10;;;0.97;;
20865;SDS011;10593;48.398;10.698;2024-02-15T00:55:47;1.60;;;1.50;;
20865;SDS011;10593;48.398;10.698;2024-02-15T00:58:13;1.47;;;1.37;;
20865;SDS011;10593;48.398;10.698;2024-02-15T01:00:38;1.30;;;1.20;;
20865;SDS011;10593;48.398;10.698;2024-02-15T01:03:04;1.30;;;1.20;;
20865;SDS011;10593;48.398;10.698;2024-02-15T01:05:30;1.07;;;1.07;;
20865;SDS011;10593;48.398;10.698;2024-02-15T01:07:56;1.40;;;1.30;;
20865;SDS011;10593;48.398;10.698;2024-02-15T01:10:22;1.30;;;1.20;;
20865;SDS011;10593;48.398;10.698;2024-02-15T01:12:49;1.00;;;1.00;;
20865;SDS011;10593;48.398;10.698;2024-02-15T01:15:15;1.10;;;1.10;;
20865;SDS011;10593;48.398;10.698;2024-02-15T01:17:43;1.70;;;1.17;;
20865;SDS011;10593;48.398;10.698;2024-02-15T01:20:09;1.37;;;1.27;;
20865;SDS011;10593;48.398;10.698;2024-02-15T01:22:36;1.27;;;1.20;;
20865;SDS011;10593;48.398;10.698;2024-02-15T01:25:01;1.10;;;1.10;;
20865;SDS011;10593;48.398;10.698;2024-02-15T01:27:28;1.10;;;1.10;;
20865;SDS011;10593;48.398;10.698;2024-02-15T01:29:56;1.20;;;1.10;;
20865;SDS011;10593;48.398;10.698;2024-02-15T01:32:22;1.40;;;1.30;;
20865;SDS011;10593;48.398;10.698;2024-02-15T01:34:48;0.93;;;0.93;;
20865;SDS011;10593;48.398;10.698;2024-02-15T01:37:16;1.00;;;0.90;;
20865;SDS011;10593;48.398;10.698;2024-02-15T01:39:42;1.47;;;1.37;;
20865;SDS011;10593;48.398;10.698;2024-02-15T01:42:07;1.20;;;1.10;;
20865;SDS011;10593;48.398;10.698;2024-02-15T01:44:34;1.20;;;1.10;;
20865;SDS011;10593;48.398;10.698;2024-02-15T01:47:01;1.00;;;1.00;;
20865;SDS011;10593;48.398;10.698;2024-02-15T01:49:29;1.20;;;1.10;;
20865;SDS011;10593;48.398;10.698;2024-02-15T01:51:55;1.30;;;1.10;;
20865;SDS011;10593;48.398;10.698;2024-02-15T01:54:22;0.90;;;0.90;;
20865;SDS011;10593;48.398;10.698;2024-02-15T01:56:50;1.10;;;1.10;;
20865;SDS011;10593;48.398;10.698;2024-02-15T01:59:16;1.27;;;1.20;;
20865;SDS011;10593;48.398;10.698;2024-02-15T02:01:42;0.97;;;0.97;;
20865;SDS011;10593;48.398;10.698;2024-02-15T02:04:09;2.13;;;1.20;;
20865;SDS011;10593;48.398;10.698;2024-02-15T02:06:36;1.20;;;1.20;;
20865;SDS011;10593;48.398;10.698;2024-02-15T02:09:03;1.33;;;1.17;;
20865;SDS011;10593;48.398;10.698;2024-02-15T02:11:29;1.03;;;0.83;;
20865;SDS011;10593;48.398;10.698;2024-02-15T02:13:55;0.90;;;0.90;;
20865;SDS011;10593;48.398;10.698;2024-02-15T02:16:30;2.70;;;1.23;;
20865;SDS011;10593;48.398;10.698;2024-02-15T02:18:57;1.00;;;1.00;;
20865;SDS011;10593;48.398;10.698;2024-02-15T02:21:25;1.00;;;1.00;;
20865;SDS011;10593;48.398;10.698;2024-02-15T02:23:52;1.73;;;1.13;;
20865;SDS011;10593;48.398;10.698;2024-02-15T02:26:21;1.00;;;1.00;;
20865;SDS011;10593;48.398;10.698;2024-02-15T02:28:49;1.00;;;1.00;;
20865;SDS011;10593;48.398;10.698;2024-02-15T02:31:19;0.90;;;0.90;;
20865;SDS011;10593;48.398;10.698;2024-02-15T02:33:50;1.57;;;0.90;;
20865;SDS011;10593;48.398;10.698;2024-02-15T02:36:18;1.00;;;1.00;;
20865;SDS011;10593;48.398;10.698;2024-02-15T02:38:44;1.40;;;1.20;;
20865;SDS011;10593;48.398;10.698;2024-02-15T02:41:11;1.20;;;1.20;;
20865;SDS011;10593;48.398;10.698;2024-02-15T02:43:40;1.70;;;1.33;;
20865;SDS011;10593;48.398;10.698;2024-02-15T02:46:06;1.43;;;1.33;;
20865;SDS011;10593;48.398;10.698;2024-02-15T02:48:35;2.00;;;1.47;;
20865;SDS011;10593;48.398;10.698;2024-02-15T02:51:06;1.30;;;1.20;;
20865;SDS011;10593;48.398;10.698;2024-02-15T02:53:32;1.33;;;1.27;;
20865;SDS011;10593;48.398;10.698;2024-02-15T02:55:58;2.60;;;1.43;;
20865;SDS011;10593;48.398;10.698;2024-02-15T02:58:24;1.40;;;1.30;;
20865;SDS011;10593;48.398;10.698;2024-02-15T03:00:50;1.40;;;1.30;;
20865;SDS011;10593;48.398;10.698;2024-02-15T03:03:17;1.40;;;1.30;;
20865;SDS011;10593;48.398;10.698;2024-02-15T03:05:47;1.50;;;1.43;;
20865;SDS011;10593;48.398;10.698;2024-02-15T03:08:13;1.83;;;1.73;;
20865;SDS011;10593;48.398;10.698;2024-02-15T03:10:42;2.50;;;1.20;;
20865;SDS011;10593;48.398;10.698;2024-02-15T03:13:08;1.40;;;1.30;;
20865;SDS011;10593;48.398;10.698;2024-02-15T03:15:34;1.60;;;1.50;;
20865;SDS011;10593;48.398;10.698;2024-02-15T03:18:02;1.97;;;1.60;;
20865;SDS011;10593;48.398;10.698;2024-02-15T03:20:31;1.40;;;1.30;;
20865;SDS011;10593;48.398;10.698;2024-02-15T03:22:59;2.03;;;1.80;;
20865;SDS011;10593;48.398;10.698;2024-02-15T03:25:27;1.50;;;1.40;;
20865;SDS011;10593;48.398;10.698;2024-02-15T03:27:55;1.50;;;1.40;;
20865;SDS011;10593;48.398;10.698;2024-02-15T03:30:23;1.43;;;1.37;;
20865;SDS011;10593;48.398;10.698;2024-02-15T03:32:54;1.73;;;1.63;;
20865;SDS011;10593;48.398;10.698;2024-02-15T03:35:20;1.70;;;1.60;;
20865;SDS011;10593;48.398;10.698;2024-02-15T03:37:51;1.50;;;1.40;;
20865;SDS011;10593;48.398;10.698;2024-02-15T03:40:18;1.70;;;1.60;;
20865;SDS011;10593;48.398;10.698;2024-02-15T03:42:45;1.67;;;1.57;;
20865;SDS011;10593;48.398;10.698;2024-02-15T03:45:17;1.30;;;1.30;;
20865;SDS011;10593;48.398;10.698;2024-02-15T03:47:43;1.90;;;1.80;;
20865;SDS011;10593;48.398;10.698;2024-02-15T03:50:09;1.90;;;1.80;;
20865;SDS011;10593;48.398;10.698;2024-02-15T03:52:35;1.80;;;1.70;;
20865;SDS011;10593;48.398;10.698;2024-02-15T03:55:02;1.77;;;1.67;;
20865;SDS011;10593;48.398;10.698;2024-02-15T03:57:28;1.23;;;1.23;;
20865;SDS011;10593;48.398;10.698;2024-02-15T03:59:54;1.60;;;1.50;;
20865;SDS011;10593;48.398;10.698;2024-02-15T04:02:22;1.53;;;1.43;;
20865;SDS011;10593;48.398;10.698;2024-02-15T04:04:53;1.77;;;1.67;;
20865;SDS011;10593;48.398;10.698;2024-02-15T04:07:20;1.80;;;1.70;;
20865;SDS011;10593;48.398;10.698;2024-02-15T04:09:47;1.90;;;1.80;;
20865;SDS011;10593;48.398;10.698;2024-02-15T04:12:14;1.60;;;1.50;;
20865;SDS011;10593;48.398;10.698;2024-02-15T04:14:40;1.60;;;1.50;;
20865;SDS011;10593;48.398;10.698;2024-02-15T04:17:06;1.73;;;1.63;;
20865;SDS011;10593;48.398;10.698;2024-02-15T04:19:32;1.80;;;1.70;;
20865;SDS011;10593;48.398;10.698;2024-02-15T04:21:58;1.80;;;1.70;;
20865;SDS011;10593;48.398;10.698;2024-02-15T04:24:25;1.60;;;1.50;;
20865;SDS011;10593;48.398;10.698;2024-02-15T04:26:51;1.70;;;1.60;;
20865;SDS011;10593;48.398;10.698;2024-02-15T04:29:18;1.60;;;1.50;;
20865;SDS011;10593;48.398;10.698;2024-02-15T04:31:45;1.40;;;1.40;;
20865;SDS011;10593;48.398;10.698;2024-02-15T04:34:15;1.40;;;1.30;;
20865;SDS011;10593;48.398;10.698;2024-02-15T04:36:43;1.67;;;1.53;;
20865;SDS011;10593;48.398;10.698;2024-02-15T04:39:14;1.40;;;1.30;;
20865;SDS011;10593;48.398;10.698;2024-02-15T04:41:48;1.30;;;1.30;;
20865;SDS011;10593;48.398;10.698;2024-02-15T04:44:20;1.50;;;1.40;;
20865;SDS011;10593;48.398;10.698;2024-02-15T04:46:47;1.60;;;1.50;;
20865;SDS011;10593;48.398;10.698;2024-02-15T04:49:14;1.80;;;1.70;;
20865;SDS011;10593;48.398;10.698;2024-02-15T04:51:40;1.80;;;1.70;;
20865;SDS011;10593;48.398;10.698;2024-02-15T04:54:07;1.33;;;1.33;;
20865;SDS011;10593;48.398;10.698;2024-02-15T04:56:33;1.57;;;1.47;;
20865;SDS011;10593;48.398;10.698;2024-02-15T04:59:01;1.50;;;1.40;;
20865;SDS011;10593;48.398;10.698;2024-02-15T05:01:27;1.90;;;1.70;;
20865;SDS011;10593;48.398;10.698;2024-02-15T05:03:54;1.50;;;1.40;;
20865;SDS011;10593;48.398;10.698;2024-02-15T05:06:20;1.60;;;1.50;;
20865;SDS011;10593;48.398;10.698;2024-02-15T05:08:46;1.50;;;1.40;;
20865;SDS011;10593;48.398;10.698;2024-02-15T05:11:12;1.53;;;1.43;;
20865;SDS011;10593;48.398;10.698;2024-02-15T05:13:43;2.83;;;1.63;;
20865;SDS011;10593;48.398;10.698;2024-02-15T05:16:10;2.30;;;2.10;;
20865;SDS011;10593;48.398;10.698;2024-02-15T05:18:36;1.70;;;1.60;;
20865;SDS011;10593;48.398;10.698;2024-02-15T05:21:02;1.40;;;1.40;;
20865;SDS011;10593;48.398;10.698;2024-02-15T05:23:29;2.07;;;1.60;;
20865;SDS011;10593;48.398;10.698;2024-02-15T05:25:55;2.00;;;1.90;;
20865;SDS011;10593;48.398;10.698;2024-02-15T05:28:21;2.10;;;1.70;;
20865;SDS011;10593;48.398;10.698;2024-02-15T05:31:08;1.80;;;1.70;;
20865;SDS011;10593;48.398;10.698;2024-02-15T05:33:42;1.50;;;1.40;;
20865;SDS011;10593;48.398;10.698;2024-02-15T05:36:12;1.60;;;1.40;;
20865;SDS011;10593;48.398;10.698;2024-02-15T05:38:53;1.80;;;1.50;;
20865;SDS011;10593;48.398;10.698;2024-02-15T05:41:19;1.80;;;1.70;;
20865;SDS011;10593;48.398;10.698;2024-02-15T05:43:46;1.57;;;1.47;;
20865;SDS011;10593;48.398;10.698;2024-02-15T05:46:18;1.60;;;1.50;;
20865;SDS011;10593;48.398;10.698;2024-02-15T05:48:46;1.70;;;1.60;;
20865;SDS011;10593;48.398;10.698;2024-02-15T05:51:12;2.13;;;1.70;;
20865;SDS011;10593;48.398;10.698;2024-02-15T05:53:38;1.50;;;1.40;;
20865;SDS011;10593;48.398;10.698;2024-02-15T05:56:04;2.10;;;2.00;;
20865;SDS011;10593;48.398;10.698;2024-02-15T05:58:32;1.70;;;1.60;;
20865;SDS011;10593;48.398;10.698;2024-02-15T06:00:58;1.77;;;1.67;;
20865;SDS011;10593;48.398;10.698;2024-02-15T06:03:30;1.63;;;1.57;;
20865;SDS011;10593;48.398;10.698;2024-02-15T06:05:59;2.83;;;2.03;;
20865;SDS011;10593;48.398;10.698;2024-02-15T06:08:27;1.50;;;1.40;;
20865;SDS011;10593;48.398;10.698;2024-02-15T06:10:56;1.60;;;1.50;;
20865;SDS011;10593;48.398;10.698;2024-02-15T06:13:22;1.73;;;1.63;;
20865;SDS011;10593;48.398;10.698;2024-02-15T06:15:49;1.70;;;1.60;;
20865;SDS011;10593;48.398;10.698;2024-02-15T06:18:19;1.77;;;1.67;;
20865;SDS011;10593;48.398;10.698;2024-02-15T06:20:50;1.90;;;1.80;;
20865;SDS011;10593;48.398;10.698;2024-02-15T06:23:16;1.87;;;1.50;;
20865;SDS011;10593;48.398;10.698;2024-02-15T06:25:43;1.90;;;1.80;;
20865;SDS011;10593;48.398;10.698;2024-02-15T06:28:10;1.50;;;1.40;;
20865;SDS011;10593;48.398;10.698;2024-02-15T06:30:44;1.63;;;1.50;;
20865;SDS011;10593;48.398;10.698;2024-02-15T06:33:29;1.50;;;1.40;;
20865;SDS011;10593;48.398;10.698;2024-02-15T06:36:13;1.60;;;1.50;;
20865;SDS011;10593;48.398;10.698;2024-02-15T06:38:57;1.57;;;1.47;;
20865;SDS011;10593;48.398;10.698;2024-02-15T06:41:41;1.43;;;1.40;;
20865;SDS011;10593;48.398;10.698;2024-02-15T06:44:07;2.00;;;1.90;;
20865;SDS011;10593;48.398;10.698;2024-02-15T06:46:32;1.73;;;1.63;;
20865;SDS011;10593;48.398;10.698;2024-02-15T06:48:58;1.77;;;1.67;;
20865;SDS011;10593;48.398;10.698;2024-02-15T06:51:23;1.60;;;1.50;;
20865;SDS011;10593;48.398;10.698;2024-02-15T06:53:49;1.87;;;1.77;;
20865;SDS011;10593;48.398;10.698;2024-02-15T06:56:16;2.33;;;1.90;;
20865;SDS011;10593;48.398;10.698;2024-02-15T06:58:43;1.93;;;1.83;;
20865;SDS011;10593;48.398;10.698;2024-02-15T07:01:08;1.90;;;1.80;;
20865;SDS011;10593;48.398;10.698;2024-02-15T07:03:34;1.90;;;1.80;;
20865;SDS011;10593;48.398;10.698;2024-02-15T07:06:00;2.30;;;2.10;;
20865;SDS011;10593;48.398;10.698;2024-02-15T07:08:27;1.60;;;1.50;;
20865;SDS011;10593;48.398;10.698;2024-02-15T07:10:54;1.70;;;1.60;;
20865;SDS011;10593;48.398;10.698;2024-02-15T07:13:20;2.00;;;1.77;;
20865;SDS011;10593;48.398;10.698;2024-02-15T07:15:45;2.00;;;1.90;;
20865;SDS011;10593;48.398;10.698;2024-02-15T07:18:12;1.87;;;1.77;;
20865;SDS011;10593;48.398;10.698;2024-02-15T07:20:41;1.90;;;1.80;;
20865;SDS011;10593;48.398;10.698;2024-02-15T07:23:07;1.97;;;1.87;;
20865;SDS011;10593;48.398;10.698;2024-02-15T07:25:33;2.87;;;1.60;;
20865;SDS011;10593;48.398;10.698;2024-02-15T07:27:58;1.60;;;1.50;;
20865;SDS011;10593;48.398;10.698;2024-02-15T07:30:25;1.80;;;1.70;;
20865;SDS011;10593;48.398;10.698;2024-02-15T07:32:51;2.00;;;1.80;;
20865;SDS011;10593;48.398;10.698;2024-02-15T07:35:17;1.93;;;1.83;;
20865;SDS011;10593;48.398;10.698;2024-02-15T07:37:52;2.63;;;1.67;;
20865;SDS011;10593;48.398;10.698;2024-02-15T07:40:20;1.90;;;1.80;;
20865;SDS011;10593;48.398;10.698;2024-02-15T07:42:47;1.77;;;1.67;;
20865;SDS011;10593;48.398;10.698;2024-02-15T07:45:14;1.80;;;1.70;;
20865;SDS011;10593;48.398;10.698;2024-02-15T07:47:40;2.33;;;2.10;;
20865;SDS011;10593;48.398;10.698;2024-02-15T07:50:05;1.87;;;1.77;;
20865;SDS011;10593;48.398;10.698;2024-02-15T07:52:34;2.10;;;2.00;;
20865;SDS011;10593;48.398;10.698;2024-02-15T07:55:00;1.80;;;1.70;;
20865;SDS011;10593;48.398;10.698;2024-02-15T07:57:33;4.07;;;1.57;;
20865;SDS011;10593;48.398;10.698;2024-02-15T07:59:59;2.00;;;1.90;;
20865;SDS011;10593;48.398;10.698;2024-02-15T08:02:25;2.50;;;2.30;;
20865;SDS011;10593;48.398;10.698;2024-02-15T08:04:53;2.90;;;2.20;;
20865;SDS011;10593;48.398;10.698;2024-02-15T08:07:19;2.80;;;2.60;;
20865;SDS011;10593;48.398;10.698;2024-02-15T08:09:45;2.10;;;2.00;;
20865;SDS011;10593;48.398;10.698;2024-02-15T08:12:15;2.50;;;2.40;;
20865;SDS011;10593;48.398;10.698;2024-02-15T08:14:41;2.33;;;2.13;;
20865;SDS011;10593;48.398;10.698;2024-02-15T08:17:07;2.70;;;2.00;;
20865;SDS011;10593;48.398;10.698;2024-02-15T08:19:33;2.10;;;2.00;;
20865;SDS011;10593;48.398;10.698;2024-02-15T08:22:03;2.37;;;2.17;;
20865;SDS011;10593;48.398;10.698;2024-02-15T08:24:30;2.63;;;2.10;;
20865;SDS011;10593;48.398;10.698;2024-02-15T08:26:56;1.80;;;1.70;;
20865;SDS011;10593;48.398;10.698;2024-02-15T08:29:24;1.90;;;1.80;;
20865;SDS011;10593;48.398;10.698;2024-02-15T08:31:50;2.13;;;1.97;;
20865;SDS011;10593;48.398;10.698;2024-02-15T08:34:16;1.90;;;1.80;;
20865;SDS011;10593;48.398;10.698;2024-02-15T08:36:43;1.97;;;1.87;;
20865;SDS011;10593;48.398;10.698;2024-02-15T08:39:09;1.83;;;1.73;;
20865;SDS011;10593;48.398;10.698;2024-02-15T08:41:37;1.93;;;1.80;;
20865;SDS011;10593;48.398;10.698;2024-02-15T08:44:04;2.17;;;2.07;;
20865;SDS011;10593;48.398;10.698;2024-02-15T08:46:36;1.87;;;1.77;;
20865;SDS011;10593;48.398;10.698;2024-02-15T08:49:02;2.03;;;1.93;;
20865;SDS011;10593;48.398;10.698;2024-02-15T08:51:28;2.03;;;1.93;;
20865;SDS011;10593;48.398;10.698;2024-02-15T08:53:57;1.80;;;1.70;;
20865;SDS011;10593;48.398;10.698;2024-02-15T08:56:24;2.03;;;1.93;;
20865;SDS011;10593;48.398;10.698;2024-02-15T08:58:50;1.93;;;1.83;;
20865;SDS011;10593;48.398;10.698;2024-02-15T09:01:16;1.70;;;1.60;;
20865;SDS011;10593;48.398;10.698;2024-02-15T09:03:42;1.83;;;1.70;;
20865;SDS011;10593;48.398;10.698;2024-02-15T09:06:08;1.70;;;1.60;;
20865;SDS011;10593;48.398;10.698;2024-02-15T09:08:33;1.73;;;1.63;;
20865;SDS011;10593;48.398;10.698;2024-02-15T09:10:59;2.37;;;1.70;;
20865;SDS011;10593;48.398;10.698;2024-02-15T09:13:25;2.07;;;1.93;;
20865;SDS011;10593;48.398;10.698;2024-02-15T09:15:50;2.30;;;1.80;;
20865;SDS011;10593;48.398;10.698;2024-02-15T09:18:16;1.87;;;1.77;;
20865;SDS011;10593;48.398;10.698;2024-02-15T09:20:47;1.90;;;1.80;;
20865;SDS011;10593;48.398;10.698;2024-02-15T09:23:20;2.00;;;1.90;;
20865;SDS011;10593;48.398;10.698;2024-02-15T09:25:48;1.90;;;1.80;;
20865;SDS011;10593;48.398;10.698;2024-02-15T09:28:16;1.87;;;1.77;;
20865;SDS011;10593;48.398;10.698;2024-02-15T09:30:48;1.70;;;1.57;;
20865;SDS011;10593;48.398;10.698;2024-02-15T09:33:16;1.57;;;1.47;;
20865;SDS011;10593;48.398;10.698;2024-02-15T09:35:44;1.87;;;1.77;;
20865;SDS011;10593;48.398;10.698;2024-02-15T09:38:11;2.33;;;1.70;;
20865;SDS011;10593;48.398;10.698;2024-02-15T09:40:36;2.03;;;1.60;;
20865;SDS011;10593;48.398;10.698;2024-02-15T09:43:02;2.10;;;2.00;;
20865;SDS011;10593;48.398;10.698;2024-02-15T09:45:28;1.60;;;1.50;;
20865;SDS011;10593;48.398;10.698;2024-02-15T09:47:55;2.07;;;1.60;;
20865;SDS011;10593;48.398;10.698;2024-02-15T09:50:30;1.80;;;1.70;;
20865;SDS011;10593;48.398;10.698;2024-02-15T09:53:00;1.80;;;1.70;;
20865;SDS011;10593;48.398;10.698;2024-02-15T09:55:27;1.80;;;1.70;;
20865;SDS011;10593;48.398;10.698;2024-02-15T09:57:54;1.70;;;1.60;;
20865;SDS011;10593;48.398;10.698;2024-02-15T10:00:20;1.97;;;1.87;;
20865;SDS011;10593;48.398;10.698;2024-02-15T10:02:52;1.97;;;1.87;;
20865;SDS011;10593;48.398;10.698;2024-02-15T10:05:18;2.13;;;1.80;;
20865;SDS011;10593;48.398;10.698;2024-02-15T10:07:44;2.17;;;2.07;;
20865;SDS011;10593;48.398;10.698;2024-02-15T10:10:14;1.70;;;1.60;;
20865;SDS011;10593;48.398;10.698;2024-02-15T10:12:44;1.80;;;1.70;;
20865;SDS011;10593;48.398;10.698;2024-02-15T10:15:53;1.67;;;1.40;;
20865;SDS011;10593;48.398;10.698;2024-02-15T10:18:13;1.57;;;1.47;;
20865;SDS011;10593;48.398;10.698;2024-02-15T10:20:39;1.43;;;1.20;;
20865;SDS011;10593;48.398;10.698;2024-02-15T10:23:11;1.10;;;1.10;;
20865;SDS011;10593;48.398;10.698;2024-02-15T10:25:43;1.60;;;1.30;;
20865;SDS011;10593;48.398;10.698;2024-02-15T10:28:10;1.77;;;1.53;;
20865;SDS011;10593;48.398;10.698;2024-02-15T10:30:39;1.93;;;1.60;;
20865;SDS011;10593;48.398;10.698;2024-02-15T10:33:10;1.43;;;1.30;;
20865;SDS011;10593;48.398;10.698;2024-02-15T10:35:49;1.57;;;1.23;;
20865;SDS011;10593;48.398;10.698;2024-02-15T10:38:14;1.77;;;1.30;;
20865;SDS011;10593;48.398;10.698;2024-02-15T10:40:40;1.40;;;1.30;;
20865;SDS011;10593;48.398;10.698;2024-02-15T10:43:08;1.27;;;1.17;;
20865;SDS011;10593;48.398;10.698;2024-02-15T10:45:38;1.40;;;1.30;;
20865;SDS011;10593;48.398;10.698;2024-02-15T10:48:07;1.87;;;1.50;;
20865;SDS011;10593;48.398;10.698;2024-02-15T10:50:34;2.20;;;1.33;;
20865;SDS011;10593;48.398;10.698;2024-02-15T10:53:01;1.50;;;1.20;;
20865;SDS011;10593;48.398;10.698;2024-02-15T10:56:01;1.20;;;1.10;;
20865;SDS011;10593;48.398;10.698;2024-02-15T10:58:33;2.53;;;1.30;;
20865;SDS011;10593;48.398;10.698;2024-02-15T11:01:10;2.27;;;1.43;;
20865;SDS011;10593;48.398;10.698;2024-02-15T11:03:52;1.07;;;0.97;;
20865;SDS011;10593;48.398;10.698;2024-02-15T11:06:26;0.73;;;0.73;;
20865;SDS011;10593;48.398;10.698;2024-02-15T11:08:55;1.10;;;1.00;;
20865;SDS011;10593;48.398;10.698;2024-02-15T11:11:21;0.90;;;0.90;;
20865;SDS011;10593;48.398;10.698;2024-02-15T11:13:47;0.90;;;0.90;;
20865;SDS011;10593;48.398;10.698;2024-02-15T11:16:38;1.47;;;1.13;;
20865;SDS011;10593;48.398;10.698;2024-02-15T11:19:06;1.07;;;1.00;;
20865;SDS011;10593;48.398;10.698;2024-02-15T11:27:02;1.27;;;1.10;;
20865;SDS011;10593;48.398;10.698;2024-02-15T11:32:37;1.03;;;0.90;;
20865;SDS011;10593;48.398;10.698;2024-02-15T11:35:22;1.07;;;0.73;;
20865;SDS011;10593;48.398;10.698;2024-02-15T11:40:16;1.10;;;1.00;;
20865;SDS011;10593;48.398;10.698;2024-02-15T11:42:43;1.50;;;1.00;;
20865;SDS011;10593;48.398;10.698;2024-02-15T11:45:12;1.10;;;1.00;;
20865;SDS011;10593;48.398;10.698;2024-02-15T11:47:43;2.20;;;0.77;;
20865;SDS011;10593;48.398;10.698;2024-02-15T11:50:15;1.77;;;1.00;;
20865;SDS011;10593;48.398;10.698;2024-02-15T11:52:43;1.63;;;1.10;;
20865;SDS011;10593;48.398;10.698;2024-02-15T11:55:19;1.40;;;0.80;;
20865;SDS011;10593;48.398;10.698;2024-02-15T12:00:42;0.70;;;0.70;;
20865;SDS011;10593;48.398;10.698;2024-02-15T12:03:26;1.33;;;0.87;;
20865;SDS011;10593;48.398;10.698;2024-02-15T12:06:11;0.60;;;0.60;;
20865;SDS011;10593;48.398;10.698;2024-02-15T12:09:00;0.83;;;0.83;;
20865;SDS011;10593;48.398;10.698;2024-02-15T12:11:46;0.77;;;0.77;;
20865;SDS011;10593;48.398;10.698;2024-02-15T12:14:30;1.37;;;1.00;;
20865;SDS011;10593;48.398;10.698;2024-02-15T12:17:14;1.00;;;1.00;;
20865;SDS011;10593;48.398;10.698;2024-02-15T12:20:02;1.43;;;0.90;;
20865;SDS011;10593;48.398;10.698;2024-02-15T12:22:38;1.80;;;0.87;;
20865;SDS011;10593;48.398;10.698;2024-02-15T12:25:15;0.70;;;0.70;;
20865;SDS011;10593;48.398;10.698;2024-02-15T12:27:46;0.77;;;0.77;;
20865;SDS011;10593;48.398;10.698;2024-02-15T12:30:18;0.73;;;0.73;;
20865;SDS011;10593;48.398;10.698;2024-02-15T12:32:51;0.60;;;0.60;;
20865;SDS011;10593;48.398;10.698;2024-02-15T12:35:21;0.77;;;0.77;;
20865;SDS011;10593;48.398;10.698;2024-02-15T12:40:29;1.10;;;1.00;;
20865;SDS011;10593;48.398;10.698;2024-02-15T12:42:57;1.40;;;1.10;;
20865;SDS011;10593;48.398;10.698;2024-02-15T12:45:25;0.70;;;0.70;;
20865;SDS011;10593;48.398;10.698;2024-02-15T12:47:55;1.17;;;0.90;;
20865;SDS011;10593;48.398;10.698;2024-02-15T12:50:23;1.13;;;0.97;;
20865;SDS011;10593;48.398;10.698;2024-02-15T12:52:53;1.47;;;1.03;;
20865;SDS011;10593;48.398;10.698;2024-02-15T12:55:29;0.70;;;0.70;;
20865;SDS011;10593;48.398;10.698;2024-02-15T12:58:00;0.57;;;0.57;;
20865;SDS011;10593;48.398;10.698;2024-02-15T13:00:33;0.87;;;0.80;;
20865;SDS011;10593;48.398;10.698;2024-02-15T13:03:05;0.80;;;0.80;;
20865;SDS011;10593;48.398;10.698;2024-02-15T13:05:36;0.70;;;0.70;;
20865;SDS011;10593;48.398;10.698;2024-02-15T13:08:03;1.20;;;0.87;;
20865;SDS011;10593;48.398;10.698;2024-02-15T13:10:31;1.10;;;1.00;;
20865;SDS011;10593;48.398;10.698;2024-02-15T13:12:56;1.23;;;1.00;;
20865;SDS011;10593;48.398;10.698;2024-02-15T13:15:23;0.70;;;0.70;;
20865;SDS011;10593;48.398;10.698;2024-02-15T13:17:57;1.10;;;1.00;;
20865;SDS011;10593;48.398;10.698;2024-02-15T13:20:24;0.83;;;0.73;;
20865;SDS011;10593;48.398;10.698;2024-02-15T13:23:04;1.87;;;0.93;;
20865;SDS011;10593;48.398;10.698;2024-02-15T13:25:40;1.17;;;1.17;;
20865;SDS011;10593;48.398;10.698;2024-02-15T13:28:08;0.80;;;0.80;;
20865;SDS011;10593;48.398;10.698;2024-02-15T13:30:38;0.80;;;0.70;;
20865;SDS011;10593;48.398;10.698;2024-02-15T13:33:04;1.47;;;1.00;;
20865;SDS011;10593;48.398;10.698;2024-02-15T13:35:31;1.70;;;1.10;;
20865;SDS011;10593;48.398;10.698;2024-02-15T13:37:57;1.00;;;0.70;;
20865;SDS011;10593;48.398;10.698;2024-02-15T13:40:26;1.20;;;1.10;;
20865;SDS011;10593;48.398;10.698;2024-02-15T13:42:55;0.80;;;0.80;;
20865;SDS011;10593;48.398;10.698;2024-02-15T13:45:30;0.77;;;0.70;;
20865;SDS011;10593;48.398;10.698;2024-02-15T13:48:01;2.23;;;1.00;;
20865;SDS011;10593;48.398;10.698;2024-02-15T13:50:28;0.80;;;0.80;;
20865;SDS011;10593;48.398;10.698;2024-02-15T13:52:55;0.80;;;0.80;;
20865;SDS011;10593;48.398;10.698;2024-02-15T13:55:21;0.70;;;0.70;;
20865;SDS011;10593;48.398;10.698;2024-02-15T13:57:47;1.37;;;1.00;;
20865;SDS011;10593;48.398;10.698;2024-02-15T14:00:16;0.97;;;0.97;;
20865;SDS011;10593;48.398;10.698;2024-02-15T14:02:54;1.10;;;1.00;;
20865;SDS011;10593;48.398;10.698;2024-02-15T14:05:23;0.83;;;0.83;;
20865;SDS011;10593;48.398;10.698;2024-02-15T14:07:54;1.53;;;0.70;;
20865;SDS011;10593;48.398;10.698;2024-02-15T14:10:25;0.70;;;0.60;;
20865;SDS011;10593;48.398;10.698;2024-02-15T14:12:54;1.23;;;0.93;;
20865;SDS011;10593;48.398;10.698;2024-02-15T14:15:20;0.80;;;0.80;;
20865;SDS011;10593;48.398;10.698;2024-02-15T14:17:46;1.00;;;0.70;;
20865;SDS011;10593;48.398;10.698;2024-02-15T14:20:13;0.73;;;0.70;;
20865;SDS011;10593;48.398;10.698;2024-02-15T14:22:48;0.80;;;0.80;;
20865;SDS011;10593;48.398;10.698;2024-02-15T14:25:20;0.80;;;0.80;;
20865;SDS011;10593;48.398;10.698;2024-02-15T14:27:56;1.53;;;0.90;;
20865;SDS011;10593;48.398;10.698;2024-02-15T14:30:23;0.77;;;0.73;;
20865;SDS011;10593;48.398;10.698;2024-02-15T14:33:08;0.60;;;0.60;;
20865;SDS011;10593;48.398;10.698;2024-02-15T14:35:36;0.80;;;0.80;;
20865;SDS011;10593;48.398;10.698;2024-02-15T14:38:07;0.90;;;0.90;;
20865;SDS011;10593;48.398;10.698;2024-02-15T14:40:42;0.63;;;0.63;;
20865;SDS011;10593;48.398;10.698;2024-02-15T14:43:21;0.80;;;0.80;;
20865;SDS011;10593;48.398;10.698;2024-02-15T14:45:52;1.33;;;0.80;;
20865;SDS011;10593;48.398;10.698;2024-02-15T14:48:18;1.37;;;1.07;;
20865;SDS011;10593;48.398;10.698;2024-02-15T14:50:45;3.03;;;1.53;;
20865;SDS011;10593;48.398;10.698;2024-02-15T14:53:14;1.17;;;0.80;;
20865;SDS011;10593;48.398;10.698;2024-02-15T14:55:40;1.27;;;1.17;;
20865;SDS011;10593;48.398;10.698;2024-02-15T14:58:10;1.67;;;1.10;;
20865;SDS011;10593;48.398;10.698;2024-02-15T15:00:37;1.10;;;0.97;;